Donna Kay — WDD9650 — position and weather

sailwx.info

Track history (hours):
 
Tides and Currents Weather Stations Pressure Air Temp Water Temp Dewpoint Dewpoint Depression Visibility Wind Speed Wind Dir Waves Ship Positions

Donna Kay

Owner: Vane Line Bunkering, Philadelphia, PA. More information available from US FCC via Universal Licensing System and Coast Guard Vessel Documentation Center.

Last reported at 2017-Dec-17 19:31 UTC. Time now 2017-Dec-17 19:44 UTC.
Position N 39°48' W 075°25'.

Length 22 m; draft 2.3 m.

Type: Tug. MMSI: 367314440.

Date/timePositionNaut miles runAvg speedWind from/ knotsBaromVisibWave heightAir tempDewpointWater temp
2017-Dec-17 19:31N 39°48' W 075°25'0 0.0
2017-Dec-17 19:01N 39°48' W 075°25'0 0.0
2017-Dec-17 18:30N 39°48' W 075°25'0 0.0
2017-Dec-17 18:00N 39°48' W 075°25'0 0.0
2017-Dec-17 17:30N 39°48' W 075°25'0 0.0
2017-Dec-17 17:00N 39°48' W 075°25'0 0.0
2017-Dec-17 16:31N 39°48' W 075°25'0 0.0
2017-Dec-17 16:00N 39°48' W 075°25'0 0.0
2017-Dec-17 15:30N 39°48' W 075°25'1 1.3
2017-Dec-17 15:00N 39°49' W 075°24'2 3.0
2017-Dec-17 14:31N 39°50' W 075°23'0 0.0
2017-Dec-17 14:00N 39°50' W 075°23'0 0.0
2017-Dec-17 13:30N 39°50' W 075°23'0 0.0
2017-Dec-17 13:00N 39°50' W 075°23'0 0.0
2017-Dec-17 12:30N 39°50' W 075°23'0 0.0
2017-Dec-17 12:00N 39°50' W 075°23'0 0.0
2017-Dec-17 11:30N 39°50' W 075°23'0 0.0
2017-Dec-17 11:00N 39°50' W 075°23'0 0.0
2017-Dec-17 10:30N 39°50' W 075°23'0 0.0
2017-Dec-17 10:00N 39°50' W 075°23'0 0.0
2017-Dec-17 09:30N 39°50' W 075°23'0 0.0
2017-Dec-17 09:00N 39°50' W 075°23'0 0.0
2017-Dec-17 08:30N 39°50' W 075°23'0 0.0
2017-Dec-17 08:01N 39°50' W 075°23'0 0.0
2017-Dec-17 07:30N 39°50' W 075°23'0 0.0
2017-Dec-17 07:00N 39°50' W 075°23'0 0.0
2017-Dec-17 06:30N 39°50' W 075°23'0 0.0
2017-Dec-17 06:00N 39°50' W 075°23'0 0.0
2017-Dec-17 05:31N 39°50' W 075°23'0 0.0
2017-Dec-17 05:00N 39°50' W 075°23'0 0.0
2017-Dec-17 04:30N 39°50' W 075°23'0 0.0
2017-Dec-17 04:00N 39°50' W 075°23'0 0.0
2017-Dec-17 03:31N 39°50' W 075°23'0 0.0
2017-Dec-17 03:00N 39°50' W 075°23'0 0.0
2017-Dec-17 02:30N 39°50' W 075°23'0 0.0
2017-Dec-17 02:01N 39°50' W 075°23'2 4.3
2017-Dec-17 01:31N 39°48' W 075°25'0 0.0
2017-Dec-17 01:00N 39°48' W 075°25'0 0.0
2017-Dec-17 00:30N 39°48' W 075°25'0 0.0
2017-Dec-17 00:00N 39°48' W 075°25'0 0.0
2017-Dec-16 23:30N 39°48' W 075°25'0 0.0
2017-Dec-16 23:00N 39°48' W 075°25'0 0.0
2017-Dec-16 22:30N 39°48' W 075°25'0 0.0
2017-Dec-16 22:00N 39°48' W 075°25'0 0.0
2017-Dec-16 21:30N 39°48' W 075°25'0 0.0
2017-Dec-16 21:00N 39°48' W 075°25'0 0.0
2017-Dec-16 20:30N 39°48' W 075°25'0 0.0
2017-Dec-16 20:00N 39°48' W 075°25'0 0.0
2017-Dec-16 19:30N 39°48' W 075°25'0 0.0
2017-Dec-16 19:00N 39°48' W 075°25'0 0.0
2017-Dec-16 18:30N 39°48' W 075°25'0 0.0
2017-Dec-16 18:00N 39°48' W 075°25'0 0.1
2017-Dec-16 17:31N 39°48' W 075°25'0 0.0
2017-Dec-16 17:00N 39°48' W 075°25'0 0.0
2017-Dec-16 16:30N 39°48' W 075°25'0 0.0
2017-Dec-16 16:00N 39°48' W 075°25'0 0.0
2017-Dec-16 15:30N 39°48' W 075°25'0 0.1
2017-Dec-16 15:00N 39°48' W 075°25'2 3.3
2017-Dec-16 14:30N 39°49' W 075°23'1 1.1
2017-Dec-16 14:00N 39°50' W 075°23'0 0.0
2017-Dec-16 13:29N 39°50' W 075°23'0 0.0
2017-Dec-16 12:58N 39°50' W 075°23'0 0.0
2017-Dec-16 12:29N 39°50' W 075°23'1 2.2
2017-Dec-16 11:59N 39°49' W 075°22'2 4.1
2017-Dec-16 11:25N 39°51' W 075°19'4 8.8
2017-Dec-16 10:57N 39°52' W 075°14'4 7.8
2017-Dec-16 10:27N 39°53' W 075°09'4 8.8
2017-Dec-16 10:00N 39°57' W 075°08'1 2.2
2017-Dec-16 09:28N 39°56' W 075°08'2 3.8
2017-Dec-16 08:59N 39°54' W 075°08'3 4.9
2017-Dec-16 08:27N 39°53' W 075°11'1 2.2
2017-Dec-16 08:00N 39°54' W 075°12'0 0.0
2017-Dec-16 07:29N 39°54' W 075°12'0 0.0
2017-Dec-16 06:59N 39°54' W 075°12'0 0.0
2017-Dec-16 06:31N 39°54' W 075°12'0 0.0
2017-Dec-16 05:56N 39°54' W 075°12'0 0.0
2017-Dec-16 05:30N 39°54' W 075°12'0 0.0
2017-Dec-16 04:59N 39°54' W 075°12'0 0.0
2017-Dec-16 04:30N 39°54' W 075°12'0 0.0
2017-Dec-16 04:00N 39°54' W 075°12'0 0.0
2017-Dec-16 03:30N 39°54' W 075°12'0 0.0
2017-Dec-16 03:00N 39°54' W 075°12'0 0.0
2017-Dec-16 02:30N 39°54' W 075°12'0 0.0
2017-Dec-16 02:00N 39°54' W 075°12'0 0.0
2017-Dec-16 01:30N 39°54' W 075°12'0 0.0
2017-Dec-16 01:00N 39°54' W 075°12'1 1.4
2017-Dec-16 00:30N 39°54' W 075°13'1 2.1
2017-Dec-16 00:00N 39°53' W 075°12'2 5.0
2017-Dec-15 23:30N 39°53' W 075°08'3 5.7
2017-Dec-15 23:00N 39°56' W 075°08'3 6.5
2017-Dec-15 22:30N 39°59' W 075°06'1 1.6
2017-Dec-15 22:00N 39°59' W 075°05'3 6.0
2017-Dec-15 21:30N 39°57' W 075°08'4 7.0
2017-Dec-15 21:00N 39°54' W 075°08'3 6.3
2017-Dec-15 20:30N 39°53' W 075°12'2 4.2
2017-Dec-15 20:00N 39°51' W 075°14'3 5.8
2017-Dec-15 19:30N 39°51' W 075°18'3 5.7
2017-Dec-15 19:00N 39°50' W 075°21'1 2.2
2017-Dec-15 18:30N 39°50' W 075°22'0 0.9
2017-Dec-15 18:00N 39°50' W 075°22'4 7.7
2017-Dec-15 17:30N 39°51' W 075°17'4 8.1
2017-Dec-15 17:00N 39°52' W 075°12'3 6.8
2017-Dec-15 16:30N 39°54' W 075°08'3 6.9
2017-Dec-15 16:00N 39°57' W 075°08'3 6.5
2017-Dec-15 15:30N 39°59' W 075°05'0 0.3
2017-Dec-15 15:00N 39°59' W 075°05'0 0.0
2017-Dec-15 14:30N 39°59' W 075°05'0 0.0
2017-Dec-15 14:00N 39°59' W 075°05'0 0.0
2017-Dec-15 13:30N 39°59' W 075°05'0 0.0
2017-Dec-15 13:00N 39°59' W 075°05'0 0.0
2017-Dec-15 12:30N 39°59' W 075°05'1 1.1
2017-Dec-15 12:00N 39°59' W 075°05'3 6.7
2017-Dec-15 11:30N 39°56' W 075°08'3 6.5
2017-Dec-15 11:00N 39°53' W 075°09'3 5.4
2017-Dec-15 10:30N 39°54' W 075°12'1 1.0
2017-Dec-15 10:01N 39°54' W 075°13'1 1.4
2017-Dec-15 09:30N 39°54' W 075°12'0 0.0
2017-Dec-15 09:00N 39°54' W 075°12'0 0.0
2017-Dec-15 08:30N 39°54' W 075°12'0 0.0
2017-Dec-15 08:00N 39°54' W 075°12'0 0.0
2017-Dec-15 07:30N 39°54' W 075°12'0 0.0
2017-Dec-15 07:00N 39°54' W 075°12'0 0.0
2017-Dec-15 06:30N 39°54' W 075°12'0 0.0
2017-Dec-15 06:00N 39°54' W 075°12'0 0.0
2017-Dec-15 05:30N 39°54' W 075°12'0 0.0
2017-Dec-15 05:00N 39°54' W 075°12'0 0.0
2017-Dec-15 04:30N 39°54' W 075°12'0 0.0
2017-Dec-15 04:00N 39°54' W 075°12'0 0.0
2017-Dec-15 02:30N 39°54' W 075°12'0 0.0
2017-Dec-15 01:00N 39°54' W 075°12'0 0.0
2017-Dec-15 00:30N 39°54' W 075°12'5 0.8
2017-Dec-14 18:31N 39°57' W 075°08'3 5.7
2017-Dec-14 18:00N 39°59' W 075°05'0 0.0
2017-Dec-14 17:30N 39°59' W 075°05'0 0.0
2017-Dec-14 17:00N 39°59' W 075°05'0 0.0
2017-Dec-14 16:30N 39°59' W 075°05'0 0.0
2017-Dec-14 16:00N 39°59' W 075°05'0 0.0
2017-Dec-14 15:00N 39°59' W 075°05'0 0.0
2017-Dec-14 14:30N 39°59' W 075°05'0 0.0
2017-Dec-14 14:00N 39°59' W 075°05'0 0.0
2017-Dec-14 13:30N 39°59' W 075°05'0 0.0
2017-Dec-14 13:00N 39°59' W 075°05'0 0.0
2017-Dec-14 12:30N 39°59' W 075°05'0 0.0
2017-Dec-14 12:01N 39°59' W 075°05'2 4.0
2017-Dec-14 11:30N 39°58' W 075°07'3 6.6
2017-Dec-14 11:00N 39°55' W 075°08'3 5.5
2017-Dec-14 10:30N 39°53' W 075°10'2 4.1
2017-Dec-14 10:01N 39°54' W 075°13'1 1.4
2017-Dec-14 09:30N 39°54' W 075°12'0 0.0
2017-Dec-14 09:00N 39°54' W 075°12'0 0.0
2017-Dec-14 08:30N 39°54' W 075°12'0 0.0
2017-Dec-14 08:00N 39°54' W 075°12'0 0.0
2017-Dec-14 07:30N 39°54' W 075°12'0 0.0
2017-Dec-14 07:00N 39°54' W 075°12'0 0.0
2017-Dec-14 06:30N 39°54' W 075°12'0 0.0
2017-Dec-14 06:00N 39°54' W 075°12'0 0.0
2017-Dec-14 05:30N 39°54' W 075°12'0 0.0
2017-Dec-14 05:00N 39°54' W 075°12'0 0.0
2017-Dec-14 04:30N 39°54' W 075°12'0 0.0
2017-Dec-14 04:00N 39°54' W 075°12'0 0.0
2017-Dec-14 03:30N 39°54' W 075°12'0 0.0
2017-Dec-14 03:00N 39°54' W 075°12'0 0.0
2017-Dec-14 02:30N 39°54' W 075°12'0 0.0
2017-Dec-14 02:00N 39°54' W 075°12'0 0.0
2017-Dec-14 01:31N 39°54' W 075°12'0 0.0
2017-Dec-14 01:00N 39°54' W 075°12'0 0.0
2017-Dec-14 00:30N 39°54' W 075°12'0 0.0
2017-Dec-14 00:00N 39°54' W 075°12'0 0.0
2017-Dec-13 23:30N 39°54' W 075°12'1 1.4
2017-Dec-13 23:00N 39°54' W 075°13'0 0.1
2017-Dec-13 22:31N 39°54' W 075°13'1 2.4
2017-Dec-13 22:00N 39°53' W 075°12'3 5.3
2017-Dec-13 21:30N 39°53' W 075°08'3 6.4
2017-Dec-13 21:00N 39°57' W 075°08'3 6.2
2017-Dec-13 20:31N 39°59' W 075°05'0 1.0
2017-Dec-13 20:00N 39°59' W 075°04'4 8.7
2017-Dec-13 19:30N 40°02' W 075°00'5 9.3
2017-Dec-13 19:00N 40°04' W 074°55'4 8.7
2017-Dec-13 18:30N 40°06' W 074°50'2 1.7
2017-Dec-13 17:36N 40°08' W 074°49'1 6.0
2017-Dec-13 17:30N 40°07' W 074°50'3 6.2
2017-Dec-13 17:00N 40°05' W 074°52'3 7.0
2017-Dec-13 16:30N 40°04' W 074°57'4 7.4
2017-Dec-13 16:01N 40°02' W 075°00'4 7.3
2017-Dec-13 15:30N 39°59' W 075°04'4 7.7
2017-Dec-13 15:00N 39°57' W 075°08'3 6.4
2017-Dec-13 14:30N 39°54' W 075°08'0 0.2
2017-Dec-13 14:00N 39°54' W 075°08'0 0.1
2017-Dec-13 13:30N 39°54' W 075°08'0 0.2
2017-Dec-13 13:00N 39°54' W 075°08'3 6.2
2017-Dec-13 12:30N 39°57' W 075°08'3 6.0
2017-Dec-13 12:00N 39°59' W 075°05'0 0.6
2017-Dec-13 11:30N 39°59' W 075°05'3 5.0
2017-Dec-13 11:00N 39°58' W 075°08'3 6.1
2017-Dec-13 10:30N 39°55' W 075°08'3 5.2
2017-Dec-13 10:00N 39°53' W 075°10'2 4.5
2017-Dec-13 09:31N 39°54' W 075°13'0 0.9
2017-Dec-13 09:00N 39°54' W 075°12'0 0.5
2017-Dec-13 08:30N 39°54' W 075°12'0 0.0
2017-Dec-13 08:00N 39°54' W 075°12'0 0.0
2017-Dec-13 07:31N 39°54' W 075°12'0 0.0
2017-Dec-13 07:01N 39°54' W 075°12'0 0.0
2017-Dec-13 06:30N 39°54' W 075°12'0 0.0
2017-Dec-13 06:00N 39°54' W 075°12'0 0.0
2017-Dec-13 05:31N 39°54' W 075°12'0 0.0
2017-Dec-13 05:01N 39°54' W 075°12'0 0.0
2017-Dec-13 04:31N 39°54' W 075°12'0 0.0
2017-Dec-13 04:01N 39°54' W 075°12'0 0.0
2017-Dec-13 03:31N 39°54' W 075°12'0 0.0
2017-Dec-13 03:01N 39°54' W 075°12'0 0.0
2017-Dec-13 02:31N 39°54' W 075°12'0 0.0
2017-Dec-13 02:00N 39°54' W 075°12'0 0.0
2017-Dec-13 01:30N 39°54' W 075°12'0 0.0
2017-Dec-13 01:00N 39°54' W 075°12'0 0.0
2017-Dec-13 00:30N 39°54' W 075°12'0 0.0
2017-Dec-13 00:00N 39°54' W 075°12'0 0.0
2017-Dec-12 23:30N 39°54' W 075°12'4 7.2
2017-Dec-12 23:01N 39°51' W 075°15'5 9.5
2017-Dec-12 22:30N 39°50' W 075°21'1 2.0
2017-Dec-12 22:00N 39°49' W 075°22'1 1.2
2017-Dec-12 21:31N 39°50' W 075°22'2 4.3
2017-Dec-12 21:00N 39°51' W 075°19'3 5.0
2017-Dec-12 20:31N 39°51' W 075°16'2 4.5
2017-Dec-12 20:00N 39°52' W 075°13'3 6.4
2017-Dec-12 19:30N 39°53' W 075°09'4 8.6
2017-Dec-12 19:01N 39°57' W 075°08'2 3.0
2017-Dec-12 18:30N 39°56' W 075°08'3 5.5
2017-Dec-12 18:01N 39°53' W 075°09'3 5.6
2017-Dec-12 17:30N 39°52' W 075°13'1 1.2
2017-Dec-12 17:00N 39°52' W 075°13'0 0.3
2017-Dec-12 16:22N 39°52' W 075°13'0 0.1
2017-Dec-12 16:00N 39°52' W 075°13'0 0.0
2017-Dec-12 15:24N 39°52' W 075°13'0 0.4
2017-Dec-12 15:00N 39°52' W 075°13'0 0.2
2017-Dec-12 14:28N 39°52' W 075°13'0 0.0
2017-Dec-12 14:00N 39°52' W 075°13'0 0.0
2017-Dec-12 13:26N 39°52' W 075°13'0 0.0
2017-Dec-12 13:00N 39°52' W 075°13'0 0.0
2017-Dec-12 12:30N 39°52' W 075°13'0 0.0
2017-Dec-12 11:59N 39°52' W 075°13'0 0.0
2017-Dec-12 11:28N 39°52' W 075°13'0 0.0
2017-Dec-12 10:54N 39°52' W 075°13'0 0.0
2017-Dec-12 10:29N 39°52' W 075°13'0 0.0
2017-Dec-12 10:00N 39°52' W 075°13'0 0.0
2017-Dec-12 09:27N 39°52' W 075°13'0 0.0
2017-Dec-12 09:00N 39°52' W 075°13'0 0.0
2017-Dec-12 08:27N 39°52' W 075°13'0 0.0
2017-Dec-12 07:55N 39°52' W 075°13'0 0.0
2017-Dec-12 07:30N 39°52' W 075°13'0 0.0
2017-Dec-12 07:00N 39°52' W 075°13'0 0.0
2017-Dec-12 06:30N 39°52' W 075°13'0 0.0
2017-Dec-12 05:59N 39°52' W 075°13'0 0.0
2017-Dec-12 05:30N 39°52' W 075°13'0 0.0
2017-Dec-12 04:57N 39°52' W 075°13'0 0.0
2017-Dec-12 04:27N 39°52' W 075°13'0 0.0
2017-Dec-12 03:56N 39°52' W 075°13'0 0.0
2017-Dec-12 03:26N 39°52' W 075°13'0 0.0
2017-Dec-12 02:58N 39°52' W 075°13'0 0.0
2017-Dec-12 02:30N 39°52' W 075°13'0 0.0
2017-Dec-12 02:01N 39°52' W 075°13'0 0.0
2017-Dec-12 01:30N 39°52' W 075°13'0 0.0
2017-Dec-12 01:00N 39°52' W 075°13'0 0.0
2017-Dec-12 00:30N 39°52' W 075°13'0 0.0
2017-Dec-12 00:00N 39°52' W 075°13'0 0.0
2017-Dec-11 23:30N 39°52' W 075°13'0 0.0
2017-Dec-11 23:01N 39°52' W 075°13'0 0.0
2017-Dec-11 22:30N 39°52' W 075°13'0 0.0
2017-Dec-11 22:00N 39°52' W 075°13'0 0.0
2017-Dec-11 21:31N 39°52' W 075°13'0 0.0
2017-Dec-11 21:01N 39°52' W 075°13'0 0.3
2017-Dec-11 20:30N 39°52' W 075°13'0 0.2
2017-Dec-11 20:01N 39°52' W 075°13'0 0.0
2017-Dec-11 19:30N 39°52' W 075°13'0 0.0
2017-Dec-11 19:00N 39°52' W 075°13'0 0.0
2017-Dec-11 18:30N 39°52' W 075°13'0 0.1
2017-Dec-11 18:01N 39°52' W 075°13'0 0.0
2017-Dec-11 17:30N 39°52' W 075°13'0 0.0
2017-Dec-11 17:00N 39°52' W 075°13'0 0.0
2017-Dec-11 16:30N 39°52' W 075°13'0 0.0
2017-Dec-11 16:00N 39°52' W 075°13'0 0.0
2017-Dec-11 15:30N 39°52' W 075°13'0 0.0
2017-Dec-11 15:00N 39°52' W 075°13'0 0.0
2017-Dec-11 14:30N 39°52' W 075°13'0 0.0
2017-Dec-11 14:00N 39°52' W 075°13'0 0.0
2017-Dec-11 13:30N 39°52' W 075°13'0 0.0
2017-Dec-11 13:00N 39°52' W 075°13'0 0.0
2017-Dec-11 12:30N 39°52' W 075°13'0 0.2
2017-Dec-11 12:00N 39°52' W 075°13'0 0.5
2017-Dec-11 11:31N 39°52' W 075°13'0 0.1
2017-Dec-11 11:00N 39°52' W 075°13'2 4.5
2017-Dec-11 10:30N 39°51' W 075°16'4 8.8
2017-Dec-11 10:00N 39°50' W 075°21'1 2.2
2017-Dec-11 09:30N 39°50' W 075°22'0 0.9
2017-Dec-11 09:00N 39°50' W 075°23'0 0.0
2017-Dec-11 08:31N 39°50' W 075°23'0 0.0
2017-Dec-11 08:00N 39°50' W 075°23'0 0.0
2017-Dec-11 07:30N 39°50' W 075°23'0 0.0
2017-Dec-11 07:01N 39°50' W 075°23'0 0.0
2017-Dec-11 06:31N 39°50' W 075°23'0 0.0
2017-Dec-11 06:01N 39°50' W 075°23'0 0.0
2017-Dec-11 05:31N 39°50' W 075°23'0 0.0
2017-Dec-11 05:00N 39°50' W 075°23'0 0.0
2017-Dec-11 04:30N 39°50' W 075°23'0 0.0
2017-Dec-11 04:00N 39°50' W 075°23'0 0.0
2017-Dec-11 03:30N 39°50' W 075°23'0 0.0
2017-Dec-11 03:01N 39°50' W 075°23'0 0.0
2017-Dec-11 02:30N 39°50' W 075°23'0 0.0
2017-Dec-11 02:00N 39°50' W 075°23'0 0.0
2017-Dec-11 01:30N 39°50' W 075°23'0 0.0
2017-Dec-11 01:00N 39°50' W 075°23'0 0.0
2017-Dec-11 00:30N 39°50' W 075°23'0 0.0
2017-Dec-11 00:00N 39°50' W 075°23'0 0.0
2017-Dec-10 23:30N 39°50' W 075°23'0 0.0
2017-Dec-10 23:00N 39°50' W 075°23'0 0.0
2017-Dec-10 22:30N 39°50' W 075°23'1 2.1
2017-Dec-10 22:01N 39°50' W 075°22'1 2.3
2017-Dec-10 21:30N 39°51' W 075°21'2 4.5
2017-Dec-10 21:01N 39°51' W 075°18'2 4.9
2017-Dec-10 20:31N 39°51' W 075°15'1 2.9
2017-Dec-10 20:01N 39°52' W 075°13'0 0.0
2017-Dec-10 19:31N 39°52' W 075°13'0 0.0
2017-Dec-10 19:01N 39°52' W 075°13'0 0.0
2017-Dec-10 18:31N 39°52' W 075°13'0 0.0
2017-Dec-10 18:01N 39°52' W 075°13'0 0.0
2017-Dec-10 17:31N 39°52' W 075°13'0 0.0
2017-Dec-10 17:00N 39°52' W 075°13'0 0.0
2017-Dec-10 16:31N 39°52' W 075°13'0 0.0
2017-Dec-10 16:01N 39°52' W 075°13'0 0.0
2017-Dec-10 15:31N 39°52' W 075°13'0 0.0
2017-Dec-10 15:01N 39°52' W 075°13'0 0.0
2017-Dec-10 14:31N 39°52' W 075°13'0 0.0
2017-Dec-10 14:00N 39°52' W 075°13'0 0.0
2017-Dec-10 13:30N 39°52' W 075°13'0 0.1
2017-Dec-10 13:01N 39°52' W 075°13'0 0.0
2017-Dec-10 12:30N 39°52' W 075°13'0 0.0
2017-Dec-10 12:01N 39°52' W 075°13'0 0.0
2017-Dec-10 11:30N 39°52' W 075°13'0 0.0
2017-Dec-10 11:01N 39°52' W 075°13'0 0.0
2017-Dec-10 10:30N 39°52' W 075°13'0 0.0
2017-Dec-10 10:01N 39°52' W 075°13'0 0.0
2017-Dec-10 09:31N 39°52' W 075°13'0 0.0
2017-Dec-10 09:01N 39°52' W 075°13'0 0.0
2017-Dec-10 08:30N 39°52' W 075°13'0 0.0
2017-Dec-10 08:01N 39°52' W 075°13'0 0.0
2017-Dec-10 07:31N 39°52' W 075°13'0 0.0
2017-Dec-10 07:01N 39°52' W 075°13'0 0.0
2017-Dec-10 06:30N 39°52' W 075°13'0 0.0
2017-Dec-10 06:00N 39°52' W 075°13'0 0.0
2017-Dec-10 05:31N 39°52' W 075°13'0 0.0
2017-Dec-10 05:01N 39°52' W 075°13'0 0.0
2017-Dec-10 04:31N 39°52' W 075°13'0 0.0
2017-Dec-10 04:00N 39°52' W 075°13'0 0.0
2017-Dec-10 03:31N 39°52' W 075°13'0 0.0
2017-Dec-10 03:00N 39°52' W 075°13'0 0.0
2017-Dec-10 02:30N 39°52' W 075°13'0 0.0
2017-Dec-10 02:00N 39°52' W 075°13'0 0.0
2017-Dec-10 01:30N 39°52' W 075°13'0 0.0
2017-Dec-10 01:00N 39°52' W 075°13'0 0.0
2017-Dec-10 00:31N 39°52' W 075°13'0 0.0
2017-Dec-10 00:01N 39°52' W 075°13'0 0.0
2017-Dec-09 23:31N 39°52' W 075°13'3 5.2
2017-Dec-09 23:00N 39°51' W 075°16'4 7.7
2017-Dec-09 22:30N 39°50' W 075°21'1 1.6
2017-Dec-09 22:01N 39°50' W 075°22'0 0.7
2017-Dec-09 21:31N 39°50' W 075°22'2 4.7
2017-Dec-09 21:00N 39°51' W 075°20'3 5.4
2017-Dec-09 20:30N 39°51' W 075°16'2 5.0
2017-Dec-09 20:01N 39°52' W 075°13'0 0.4
2017-Dec-09 19:31N 39°52' W 075°13'0 0.0
2017-Dec-09 19:01N 39°52' W 075°13'0 0.1
2017-Dec-09 18:30N 39°52' W 075°13'0 0.0
2017-Dec-09 18:01N 39°52' W 075°13'0 0.0
2017-Dec-09 17:31N 39°52' W 075°13'0 0.0
2017-Dec-09 17:01N 39°52' W 075°13'0 0.0
2017-Dec-09 16:30N 39°52' W 075°13'0 0.0
2017-Dec-09 16:00N 39°52' W 075°13'0 0.0
2017-Dec-09 15:31N 39°52' W 075°13'0 0.0
2017-Dec-09 15:00N 39°52' W 075°13'0 0.2
2017-Dec-09 14:30N 39°52' W 075°13'0 0.0
2017-Dec-09 14:01N 39°52' W 075°13'0 0.0
2017-Dec-09 13:30N 39°52' W 075°13'0 0.0
2017-Dec-09 13:00N 39°52' W 075°13'0 0.1
2017-Dec-09 12:31N 39°52' W 075°13'0 0.2
2017-Dec-09 12:00N 39°52' W 075°13'0 0.4
2017-Dec-09 11:30N 39°52' W 075°13'0 0.0
2017-Dec-09 11:00N 39°52' W 075°13'0 0.0
2017-Dec-09 10:31N 39°52' W 075°13'0 0.0
2017-Dec-09 10:00N 39°52' W 075°13'0 0.0
2017-Dec-09 09:30N 39°52' W 075°13'0 0.0
2017-Dec-09 09:01N 39°52' W 075°13'0 0.0
2017-Dec-09 08:31N 39°52' W 075°13'0 0.0
2017-Dec-09 08:00N 39°52' W 075°13'0 0.0
2017-Dec-09 07:31N 39°52' W 075°13'0 0.0
2017-Dec-09 07:00N 39°52' W 075°13'0 0.0
2017-Dec-09 06:31N 39°52' W 075°13'0 0.0
2017-Dec-09 06:00N 39°52' W 075°13'0 0.0
2017-Dec-09 05:30N 39°52' W 075°13'0 0.0
2017-Dec-09 05:01N 39°52' W 075°13'0 0.0
2017-Dec-09 04:30N 39°52' W 075°13'0 0.0
2017-Dec-09 04:00N 39°52' W 075°13'0 0.0
2017-Dec-09 03:30N 39°52' W 075°13'0 0.0
2017-Dec-09 03:01N 39°52' W 075°13'0 0.0
2017-Dec-09 02:31N 39°52' W 075°13'0 0.0
2017-Dec-09 02:01N 39°52' W 075°13'0 0.0
2017-Dec-09 01:31N 39°52' W 075°13'0 0.0
2017-Dec-09 01:01N 39°52' W 075°13'0 0.0
2017-Dec-09 00:30N 39°52' W 075°13'0 0.0
2017-Dec-09 00:00N 39°52' W 075°13'0 0.0
2017-Dec-08 23:30N 39°52' W 075°13'0 0.0
2017-Dec-08 23:00N 39°52' W 075°13'0 0.0
2017-Dec-08 22:31N 39°52' W 075°13'0 0.0
2017-Dec-08 22:00N 39°52' W 075°13'0 0.0
2017-Dec-08 21:30N 39°52' W 075°13'0 0.1
2017-Dec-08 21:01N 39°52' W 075°13'0 0.4
2017-Dec-08 20:30N 39°52' W 075°13'0 0.1
2017-Dec-08 20:01N 39°52' W 075°13'0 0.0
2017-Dec-08 19:30N 39°52' W 075°13'0 0.0
2017-Dec-08 19:01N 39°52' W 075°13'0 0.0
2017-Dec-08 18:30N 39°52' W 075°13'0 0.0
2017-Dec-08 18:00N 39°52' W 075°13'0 0.0
2017-Dec-08 17:30N 39°52' W 075°13'0 0.0
2017-Dec-08 17:00N 39°52' W 075°13'0 0.0
2017-Dec-08 16:31N 39°52' W 075°13'0 0.0
2017-Dec-08 16:00N 39°52' W 075°13'0 0.0
2017-Dec-08 15:31N 39°52' W 075°13'0 0.1
2017-Dec-08 15:01N 39°52' W 075°13'0 0.0
2017-Dec-08 14:31N 39°52' W 075°13'0 0.4
2017-Dec-08 14:01N 39°52' W 075°13'0 0.4
2017-Dec-08 13:31N 39°52' W 075°13'0 0.0
2017-Dec-08 13:01N 39°52' W 075°13'0 0.0
2017-Dec-08 12:30N 39°52' W 075°13'0 0.0
2017-Dec-08 12:01N 39°52' W 075°13'0 0.5
2017-Dec-08 11:30N 39°52' W 075°13'0 0.0
2017-Dec-08 11:01N 39°52' W 075°13'0 0.0
2017-Dec-08 10:31N 39°52' W 075°13'0 0.0
2017-Dec-08 10:01N 39°52' W 075°13'0 0.0
2017-Dec-08 09:31N 39°52' W 075°13'0 0.0
2017-Dec-08 09:00N 39°52' W 075°13'0 0.0
2017-Dec-08 08:30N 39°52' W 075°13'0 0.0
2017-Dec-08 08:01N 39°52' W 075°13'0 0.0
2017-Dec-08 07:30N 39°52' W 075°13'0 0.0
2017-Dec-08 07:00N 39°52' W 075°13'0 0.0
2017-Dec-08 06:30N 39°52' W 075°13'0 0.0
2017-Dec-08 06:01N 39°52' W 075°13'0 0.0
2017-Dec-08 05:31N 39°52' W 075°13'0 0.0
2017-Dec-08 05:00N 39°52' W 075°13'0 0.0
2017-Dec-08 04:30N 39°52' W 075°13'0 0.1
2017-Dec-08 04:01N 39°52' W 075°13'1 1.4
2017-Dec-08 03:30N 39°52' W 075°14'3 5.9
2017-Dec-08 03:00N 39°51' W 075°17'3 5.6
2017-Dec-08 02:30N 39°51' W 075°21'1 2.4
2017-Dec-08 02:00N 39°49' W 075°22'0 0.4
2017-Dec-08 01:30N 39°50' W 075°21'0 0.9
2017-Dec-08 01:01N 39°50' W 075°22'3 5.4
2017-Dec-08 00:31N 39°51' W 075°19'4 7.5
2017-Dec-08 00:01N 39°51' W 075°14'1 2.2
2017-Dec-07 23:31N 39°52' W 075°13'2 4.1
2017-Dec-07 23:01N 39°54' W 075°12'0 0.0
2017-Dec-07 22:31N 39°54' W 075°12'2 3.3
2017-Dec-07 22:01N 39°52' W 075°13'0 0.8
2017-Dec-07 21:30N 39°52' W 075°13'0 0.0
2017-Dec-07 21:01N 39°52' W 075°13'0 0.0
2017-Dec-07 20:31N 39°52' W 075°13'0 0.0
2017-Dec-07 20:00N 39°52' W 075°13'  
Track history (hours):
 
Tides and Currents Weather Stations Pressure Air Temp Water Temp Dewpoint Dewpoint Depression Visibility Wind Speed Wind Dir Waves Ship Positions

Donna Kay

Owner: Vane Line Bunkering, Philadelphia, PA. More information available from US FCC via Universal Licensing System and Coast Guard Vessel Documentation Center.

Last reported at 2017-Dec-17 19:31 UTC. Time now 2017-Dec-17 19:44 UTC.
Position N 39°48' W 075°25'.

Length 22 m; draft 2.3 m.

Type: Tug. MMSI: 367314440.

Date/timePositionNaut miles runAvg speedWind from/ knotsBaromVisibWave heightAir tempDewpointWater temp
2017-Dec-17 19:31N 39°48' W 075°25'0 0.0
2017-Dec-17 19:01N 39°48' W 075°25'0 0.0
2017-Dec-17 18:30N 39°48' W 075°25'0 0.0
2017-Dec-17 18:00N 39°48' W 075°25'0 0.0
2017-Dec-17 17:30N 39°48' W 075°25'0 0.0
2017-Dec-17 17:00N 39°48' W 075°25'0 0.0
2017-Dec-17 16:31N 39°48' W 075°25'0 0.0
2017-Dec-17 16:00N 39°48' W 075°25'0 0.0
2017-Dec-17 15:30N 39°48' W 075°25'1 1.3
2017-Dec-17 15:00N 39°49' W 075°24'2 3.0
2017-Dec-17 14:31N 39°50' W 075°23'0 0.0
2017-Dec-17 14:00N 39°50' W 075°23'0 0.0
2017-Dec-17 13:30N 39°50' W 075°23'0 0.0
2017-Dec-17 13:00N 39°50' W 075°23'0 0.0
2017-Dec-17 12:30N 39°50' W 075°23'0 0.0
2017-Dec-17 12:00N 39°50' W 075°23'0 0.0
2017-Dec-17 11:30N 39°50' W 075°23'0 0.0
2017-Dec-17 11:00N 39°50' W 075°23'0 0.0
2017-Dec-17 10:30N 39°50' W 075°23'0 0.0
2017-Dec-17 10:00N 39°50' W 075°23'0 0.0
2017-Dec-17 09:30N 39°50' W 075°23'0 0.0
2017-Dec-17 09:00N 39°50' W 075°23'0 0.0
2017-Dec-17 08:30N 39°50' W 075°23'0 0.0
2017-Dec-17 08:01N 39°50' W 075°23'0 0.0
2017-Dec-17 07:30N 39°50' W 075°23'0 0.0
2017-Dec-17 07:00N 39°50' W 075°23'0 0.0
2017-Dec-17 06:30N 39°50' W 075°23'0 0.0
2017-Dec-17 06:00N 39°50' W 075°23'0 0.0
2017-Dec-17 05:31N 39°50' W 075°23'0 0.0
2017-Dec-17 05:00N 39°50' W 075°23'0 0.0
2017-Dec-17 04:30N 39°50' W 075°23'0 0.0
2017-Dec-17 04:00N 39°50' W 075°23'0 0.0
2017-Dec-17 03:31N 39°50' W 075°23'0 0.0
2017-Dec-17 03:00N 39°50' W 075°23'0 0.0
2017-Dec-17 02:30N 39°50' W 075°23'0 0.0
2017-Dec-17 02:01N 39°50' W 075°23'2 4.3
2017-Dec-17 01:31N 39°48' W 075°25'0 0.0
2017-Dec-17 01:00N 39°48' W 075°25'0 0.0
2017-Dec-17 00:30N 39°48' W 075°25'0 0.0
2017-Dec-17 00:00N 39°48' W 075°25'0 0.0
2017-Dec-16 23:30N 39°48' W 075°25'0 0.0
2017-Dec-16 23:00N 39°48' W 075°25'0 0.0
2017-Dec-16 22:30N 39°48' W 075°25'0 0.0
2017-Dec-16 22:00N 39°48' W 075°25'0 0.0
2017-Dec-16 21:30N 39°48' W 075°25'0 0.0
2017-Dec-16 21:00N 39°48' W 075°25'0 0.0
2017-Dec-16 20:30N 39°48' W 075°25'0 0.0
2017-Dec-16 20:00N 39°48' W 075°25'0 0.0
2017-Dec-16 19:30N 39°48' W 075°25'0 0.0
2017-Dec-16 19:00N 39°48' W 075°25'0 0.0
2017-Dec-16 18:30N 39°48' W 075°25'0 0.0
2017-Dec-16 18:00N 39°48' W 075°25'0 0.1
2017-Dec-16 17:31N 39°48' W 075°25'0 0.0
2017-Dec-16 17:00N 39°48' W 075°25'0 0.0
2017-Dec-16 16:30N 39°48' W 075°25'0 0.0
2017-Dec-16 16:00N 39°48' W 075°25'0 0.0
2017-Dec-16 15:30N 39°48' W 075°25'0 0.1
2017-Dec-16 15:00N 39°48' W 075°25'2 3.3
2017-Dec-16 14:30N 39°49' W 075°23'1 1.1
2017-Dec-16 14:00N 39°50' W 075°23'0 0.0
2017-Dec-16 13:29N 39°50' W 075°23'0 0.0
2017-Dec-16 12:58N 39°50' W 075°23'0 0.0
2017-Dec-16 12:29N 39°50' W 075°23'1 2.2
2017-Dec-16 11:59N 39°49' W 075°22'2 4.1
2017-Dec-16 11:25N 39°51' W 075°19'4 8.8
2017-Dec-16 10:57N 39°52' W 075°14'4 7.8
2017-Dec-16 10:27N 39°53' W 075°09'4 8.8
2017-Dec-16 10:00N 39°57' W 075°08'1 2.2
2017-Dec-16 09:28N 39°56' W 075°08'2 3.8
2017-Dec-16 08:59N 39°54' W 075°08'3 4.9
2017-Dec-16 08:27N 39°53' W 075°11'1 2.2
2017-Dec-16 08:00N 39°54' W 075°12'0 0.0
2017-Dec-16 07:29N 39°54' W 075°12'0 0.0
2017-Dec-16 06:59N 39°54' W 075°12'0 0.0
2017-Dec-16 06:31N 39°54' W 075°12'0 0.0
2017-Dec-16 05:56N 39°54' W 075°12'0 0.0
2017-Dec-16 05:30N 39°54' W 075°12'0 0.0
2017-Dec-16 04:59N 39°54' W 075°12'0 0.0
2017-Dec-16 04:30N 39°54' W 075°12'0 0.0
2017-Dec-16 04:00N 39°54' W 075°12'0 0.0
2017-Dec-16 03:30N 39°54' W 075°12'0 0.0
2017-Dec-16 03:00N 39°54' W 075°12'0 0.0
2017-Dec-16 02:30N 39°54' W 075°12'0 0.0
2017-Dec-16 02:00N 39°54' W 075°12'0 0.0
2017-Dec-16 01:30N 39°54' W 075°12'0 0.0
2017-Dec-16 01:00N 39°54' W 075°12'1 1.4
2017-Dec-16 00:30N 39°54' W 075°13'1 2.1
2017-Dec-16 00:00N 39°53' W 075°12'2 5.0
2017-Dec-15 23:30N 39°53' W 075°08'3 5.7
2017-Dec-15 23:00N 39°56' W 075°08'3 6.5
2017-Dec-15 22:30N 39°59' W 075°06'1 1.6
2017-Dec-15 22:00N 39°59' W 075°05'3 6.0
2017-Dec-15 21:30N 39°57' W 075°08'4 7.0
2017-Dec-15 21:00N 39°54' W 075°08'3 6.3
2017-Dec-15 20:30N 39°53' W 075°12'2 4.2
2017-Dec-15 20:00N 39°51' W 075°14'3 5.8
2017-Dec-15 19:30N 39°51' W 075°18'3 5.7
2017-Dec-15 19:00N 39°50' W 075°21'1 2.2
2017-Dec-15 18:30N 39°50' W 075°22'0 0.9
2017-Dec-15 18:00N 39°50' W 075°22'4 7.7
2017-Dec-15 17:30N 39°51' W 075°17'4 8.1
2017-Dec-15 17:00N 39°52' W 075°12'3 6.8
2017-Dec-15 16:30N 39°54' W 075°08'3 6.9
2017-Dec-15 16:00N 39°57' W 075°08'3 6.5
2017-Dec-15 15:30N 39°59' W 075°05'0 0.3
2017-Dec-15 15:00N 39°59' W 075°05'0 0.0
2017-Dec-15 14:30N 39°59' W 075°05'0 0.0
2017-Dec-15 14:00N 39°59' W 075°05'0 0.0
2017-Dec-15 13:30N 39°59' W 075°05'0 0.0
2017-Dec-15 13:00N 39°59' W 075°05'0 0.0
2017-Dec-15 12:30N 39°59' W 075°05'1 1.1
2017-Dec-15 12:00N 39°59' W 075°05'3 6.7
2017-Dec-15 11:30N 39°56' W 075°08'3 6.5
2017-Dec-15 11:00N 39°53' W 075°09'3 5.4
2017-Dec-15 10:30N 39°54' W 075°12'1 1.0
2017-Dec-15 10:01N 39°54' W 075°13'1 1.4
2017-Dec-15 09:30N 39°54' W 075°12'0 0.0
2017-Dec-15 09:00N 39°54' W 075°12'0 0.0
2017-Dec-15 08:30N 39°54' W 075°12'0 0.0
2017-Dec-15 08:00N 39°54' W 075°12'0 0.0
2017-Dec-15 07:30N 39°54' W 075°12'0 0.0
2017-Dec-15 07:00N 39°54' W 075°12'0 0.0
2017-Dec-15 06:30N 39°54' W 075°12'0 0.0
2017-Dec-15 06:00N 39°54' W 075°12'0 0.0
2017-Dec-15 05:30N 39°54' W 075°12'0 0.0
2017-Dec-15 05:00N 39°54' W 075°12'0 0.0
2017-Dec-15 04:30N 39°54' W 075°12'0 0.0
2017-Dec-15 04:00N 39°54' W 075°12'0 0.0
2017-Dec-15 02:30N 39°54' W 075°12'0 0.0
2017-Dec-15 01:00N 39°54' W 075°12'0 0.0
2017-Dec-15 00:30N 39°54' W 075°12'5 0.8
2017-Dec-14 18:31N 39°57' W 075°08'3 5.7
2017-Dec-14 18:00N 39°59' W 075°05'0 0.0
2017-Dec-14 17:30N 39°59' W 075°05'0 0.0
2017-Dec-14 17:00N 39°59' W 075°05'0 0.0
2017-Dec-14 16:30N 39°59' W 075°05'0 0.0
2017-Dec-14 16:00N 39°59' W 075°05'0 0.0
2017-Dec-14 15:00N 39°59' W 075°05'0 0.0
2017-Dec-14 14:30N 39°59' W 075°05'0 0.0
2017-Dec-14 14:00N 39°59' W 075°05'0 0.0
2017-Dec-14 13:30N 39°59' W 075°05'0 0.0
2017-Dec-14 13:00N 39°59' W 075°05'0 0.0
2017-Dec-14 12:30N 39°59' W 075°05'0 0.0
2017-Dec-14 12:01N 39°59' W 075°05'2 4.0
2017-Dec-14 11:30N 39°58' W 075°07'3 6.6
2017-Dec-14 11:00N 39°55' W 075°08'3 5.5
2017-Dec-14 10:30N 39°53' W 075°10'2 4.1
2017-Dec-14 10:01N 39°54' W 075°13'1 1.4
2017-Dec-14 09:30N 39°54' W 075°12'0 0.0
2017-Dec-14 09:00N 39°54' W 075°12'0 0.0
2017-Dec-14 08:30N 39°54' W 075°12'0 0.0
2017-Dec-14 08:00N 39°54' W 075°12'0 0.0
2017-Dec-14 07:30N 39°54' W 075°12'0 0.0
2017-Dec-14 07:00N 39°54' W 075°12'0 0.0
2017-Dec-14 06:30N 39°54' W 075°12'0 0.0
2017-Dec-14 06:00N 39°54' W 075°12'0 0.0
2017-Dec-14 05:30N 39°54' W 075°12'0 0.0
2017-Dec-14 05:00N 39°54' W 075°12'0 0.0
2017-Dec-14 04:30N 39°54' W 075°12'0 0.0
2017-Dec-14 04:00N 39°54' W 075°12'0 0.0
2017-Dec-14 03:30N 39°54' W 075°12'0 0.0
2017-Dec-14 03:00N 39°54' W 075°12'0 0.0
2017-Dec-14 02:30N 39°54' W 075°12'0 0.0
2017-Dec-14 02:00N 39°54' W 075°12'0 0.0
2017-Dec-14 01:31N 39°54' W 075°12'0 0.0
2017-Dec-14 01:00N 39°54' W 075°12'0 0.0
2017-Dec-14 00:30N 39°54' W 075°12'0 0.0
2017-Dec-14 00:00N 39°54' W 075°12'0 0.0
2017-Dec-13 23:30N 39°54' W 075°12'1 1.4
2017-Dec-13 23:00N 39°54' W 075°13'0 0.1
2017-Dec-13 22:31N 39°54' W 075°13'1 2.4
2017-Dec-13 22:00N 39°53' W 075°12'3 5.3
2017-Dec-13 21:30N 39°53' W 075°08'3 6.4
2017-Dec-13 21:00N 39°57' W 075°08'3 6.2
2017-Dec-13 20:31N 39°59' W 075°05'0 1.0
2017-Dec-13 20:00N 39°59' W 075°04'4 8.7
2017-Dec-13 19:30N 40°02' W 075°00'5 9.3
2017-Dec-13 19:00N 40°04' W 074°55'4 8.7
2017-Dec-13 18:30N 40°06' W 074°50'2 1.7
2017-Dec-13 17:36N 40°08' W 074°49'1 6.0
2017-Dec-13 17:30N 40°07' W 074°50'3 6.2
2017-Dec-13 17:00N 40°05' W 074°52'3 7.0
2017-Dec-13 16:30N 40°04' W 074°57'4 7.4
2017-Dec-13 16:01N 40°02' W 075°00'4 7.3
2017-Dec-13 15:30N 39°59' W 075°04'4 7.7
2017-Dec-13 15:00N 39°57' W 075°08'3 6.4
2017-Dec-13 14:30N 39°54' W 075°08'0 0.2
2017-Dec-13 14:00N 39°54' W 075°08'0 0.1
2017-Dec-13 13:30N 39°54' W 075°08'0 0.2
2017-Dec-13 13:00N 39°54' W 075°08'3 6.2
2017-Dec-13 12:30N 39°57' W 075°08'3 6.0
2017-Dec-13 12:00N 39°59' W 075°05'0 0.6
2017-Dec-13 11:30N 39°59' W 075°05'3 5.0
2017-Dec-13 11:00N 39°58' W 075°08'3 6.1
2017-Dec-13 10:30N 39°55' W 075°08'3 5.2
2017-Dec-13 10:00N 39°53' W 075°10'2 4.5
2017-Dec-13 09:31N 39°54' W 075°13'0 0.9
2017-Dec-13 09:00N 39°54' W 075°12'0 0.5
2017-Dec-13 08:30N 39°54' W 075°12'0 0.0
2017-Dec-13 08:00N 39°54' W 075°12'0 0.0
2017-Dec-13 07:31N 39°54' W 075°12'0 0.0
2017-Dec-13 07:01N 39°54' W 075°12'0 0.0
2017-Dec-13 06:30N 39°54' W 075°12'0 0.0
2017-Dec-13 06:00N 39°54' W 075°12'0 0.0
2017-Dec-13 05:31N 39°54' W 075°12'0 0.0
2017-Dec-13 05:01N 39°54' W 075°12'0 0.0
2017-Dec-13 04:31N 39°54' W 075°12'0 0.0
2017-Dec-13 04:01N 39°54' W 075°12'0 0.0
2017-Dec-13 03:31N 39°54' W 075°12'0 0.0
2017-Dec-13 03:01N 39°54' W 075°12'0 0.0
2017-Dec-13 02:31N 39°54' W 075°12'0 0.0
2017-Dec-13 02:00N 39°54' W 075°12'0 0.0
2017-Dec-13 01:30N 39°54' W 075°12'0 0.0
2017-Dec-13 01:00N 39°54' W 075°12'0 0.0
2017-Dec-13 00:30N 39°54' W 075°12'0 0.0
2017-Dec-13 00:00N 39°54' W 075°12'0 0.0
2017-Dec-12 23:30N 39°54' W 075°12'4 7.2
2017-Dec-12 23:01N 39°51' W 075°15'5 9.5
2017-Dec-12 22:30N 39°50' W 075°21'1 2.0
2017-Dec-12 22:00N 39°49' W 075°22'1 1.2
2017-Dec-12 21:31N 39°50' W 075°22'2 4.3
2017-Dec-12 21:00N 39°51' W 075°19'3 5.0
2017-Dec-12 20:31N 39°51' W 075°16'2 4.5
2017-Dec-12 20:00N 39°52' W 075°13'3 6.4
2017-Dec-12 19:30N 39°53' W 075°09'4 8.6
2017-Dec-12 19:01N 39°57' W 075°08'2 3.0
2017-Dec-12 18:30N 39°56' W 075°08'3 5.5
2017-Dec-12 18:01N 39°53' W 075°09'3 5.6
2017-Dec-12 17:30N 39°52' W 075°13'1 1.2
2017-Dec-12 17:00N 39°52' W 075°13'0 0.3
2017-Dec-12 16:22N 39°52' W 075°13'0 0.1
2017-Dec-12 16:00N 39°52' W 075°13'0 0.0
2017-Dec-12 15:24N 39°52' W 075°13'0 0.4
2017-Dec-12 15:00N 39°52' W 075°13'0 0.2
2017-Dec-12 14:28N 39°52' W 075°13'0 0.0
2017-Dec-12 14:00N 39°52' W 075°13'0 0.0
2017-Dec-12 13:26N 39°52' W 075°13'0 0.0
2017-Dec-12 13:00N 39°52' W 075°13'0 0.0
2017-Dec-12 12:30N 39°52' W 075°13'0 0.0
2017-Dec-12 11:59N 39°52' W 075°13'0 0.0
2017-Dec-12 11:28N 39°52' W 075°13'0 0.0
2017-Dec-12 10:54N 39°52' W 075°13'0 0.0
2017-Dec-12 10:29N 39°52' W 075°13'0 0.0
2017-Dec-12 10:00N 39°52' W 075°13'0 0.0
2017-Dec-12 09:27N 39°52' W 075°13'0 0.0
2017-Dec-12 09:00N 39°52' W 075°13'0 0.0
2017-Dec-12 08:27N 39°52' W 075°13'0 0.0
2017-Dec-12 07:55N 39°52' W 075°13'0 0.0
2017-Dec-12 07:30N 39°52' W 075°13'0 0.0
2017-Dec-12 07:00N 39°52' W 075°13'0 0.0
2017-Dec-12 06:30N 39°52' W 075°13'0 0.0
2017-Dec-12 05:59N 39°52' W 075°13'0 0.0
2017-Dec-12 05:30N 39°52' W 075°13'0 0.0
2017-Dec-12 04:57N 39°52' W 075°13'0 0.0
2017-Dec-12 04:27N 39°52' W 075°13'0 0.0
2017-Dec-12 03:56N 39°52' W 075°13'0 0.0
2017-Dec-12 03:26N 39°52' W 075°13'0 0.0
2017-Dec-12 02:58N 39°52' W 075°13'0 0.0
2017-Dec-12 02:30N 39°52' W 075°13'0 0.0
2017-Dec-12 02:01N 39°52' W 075°13'0 0.0
2017-Dec-12 01:30N 39°52' W 075°13'0 0.0
2017-Dec-12 01:00N 39°52' W 075°13'0 0.0
2017-Dec-12 00:30N 39°52' W 075°13'0 0.0
2017-Dec-12 00:00N 39°52' W 075°13'0 0.0
2017-Dec-11 23:30N 39°52' W 075°13'0 0.0
2017-Dec-11 23:01N 39°52' W 075°13'0 0.0
2017-Dec-11 22:30N 39°52' W 075°13'0 0.0
2017-Dec-11 22:00N 39°52' W 075°13'0 0.0
2017-Dec-11 21:31N 39°52' W 075°13'0 0.0
2017-Dec-11 21:01N 39°52' W 075°13'0 0.3
2017-Dec-11 20:30N 39°52' W 075°13'0 0.2
2017-Dec-11 20:01N 39°52' W 075°13'0 0.0
2017-Dec-11 19:30N 39°52' W 075°13'0 0.0
2017-Dec-11 19:00N 39°52' W 075°13'0 0.0
2017-Dec-11 18:30N 39°52' W 075°13'0 0.1
2017-Dec-11 18:01N 39°52' W 075°13'0 0.0
2017-Dec-11 17:30N 39°52' W 075°13'0 0.0
2017-Dec-11 17:00N 39°52' W 075°13'0 0.0
2017-Dec-11 16:30N 39°52' W 075°13'0 0.0
2017-Dec-11 16:00N 39°52' W 075°13'0 0.0
2017-Dec-11 15:30N 39°52' W 075°13'0 0.0
2017-Dec-11 15:00N 39°52' W 075°13'0 0.0
2017-Dec-11 14:30N 39°52' W 075°13'0 0.0
2017-Dec-11 14:00N 39°52' W 075°13'0 0.0
2017-Dec-11 13:30N 39°52' W 075°13'0 0.0
2017-Dec-11 13:00N 39°52' W 075°13'0 0.0
2017-Dec-11 12:30N 39°52' W 075°13'0 0.2
2017-Dec-11 12:00N 39°52' W 075°13'0 0.5
2017-Dec-11 11:31N 39°52' W 075°13'0 0.1
2017-Dec-11 11:00N 39°52' W 075°13'2 4.5
2017-Dec-11 10:30N 39°51' W 075°16'4 8.8
2017-Dec-11 10:00N 39°50' W 075°21'1 2.2
2017-Dec-11 09:30N 39°50' W 075°22'0 0.9
2017-Dec-11 09:00N 39°50' W 075°23'0 0.0
2017-Dec-11 08:31N 39°50' W 075°23'0 0.0
2017-Dec-11 08:00N 39°50' W 075°23'0 0.0
2017-Dec-11 07:30N 39°50' W 075°23'0 0.0
2017-Dec-11 07:01N 39°50' W 075°23'0 0.0
2017-Dec-11 06:31N 39°50' W 075°23'0 0.0
2017-Dec-11 06:01N 39°50' W 075°23'0 0.0
2017-Dec-11 05:31N 39°50' W 075°23'0 0.0
2017-Dec-11 05:00N 39°50' W 075°23'0 0.0
2017-Dec-11 04:30N 39°50' W 075°23'0 0.0
2017-Dec-11 04:00N 39°50' W 075°23'0 0.0
2017-Dec-11 03:30N 39°50' W 075°23'0 0.0
2017-Dec-11 03:01N 39°50' W 075°23'0 0.0
2017-Dec-11 02:30N 39°50' W 075°23'0 0.0
2017-Dec-11 02:00N 39°50' W 075°23'0 0.0
2017-Dec-11 01:30N 39°50' W 075°23'0 0.0
2017-Dec-11 01:00N 39°50' W 075°23'0 0.0
2017-Dec-11 00:30N 39°50' W 075°23'0 0.0
2017-Dec-11 00:00N 39°50' W 075°23'0 0.0
2017-Dec-10 23:30N 39°50' W 075°23'0 0.0
2017-Dec-10 23:00N 39°50' W 075°23'0 0.0
2017-Dec-10 22:30N 39°50' W 075°23'1 2.1
2017-Dec-10 22:01N 39°50' W 075°22'1 2.3
2017-Dec-10 21:30N 39°51' W 075°21'2 4.5
2017-Dec-10 21:01N 39°51' W 075°18'2 4.9
2017-Dec-10 20:31N 39°51' W 075°15'1 2.9
2017-Dec-10 20:01N 39°52' W 075°13'0 0.0
2017-Dec-10 19:31N 39°52' W 075°13'0 0.0
2017-Dec-10 19:01N 39°52' W 075°13'0 0.0
2017-Dec-10 18:31N 39°52' W 075°13'0 0.0
2017-Dec-10 18:01N 39°52' W 075°13'0 0.0
2017-Dec-10 17:31N 39°52' W 075°13'0 0.0
2017-Dec-10 17:00N 39°52' W 075°13'0 0.0
2017-Dec-10 16:31N 39°52' W 075°13'0 0.0
2017-Dec-10 16:01N 39°52' W 075°13'0 0.0
2017-Dec-10 15:31N 39°52' W 075°13'0 0.0
2017-Dec-10 15:01N 39°52' W 075°13'0 0.0
2017-Dec-10 14:31N 39°52' W 075°13'0 0.0
2017-Dec-10 14:00N 39°52' W 075°13'0 0.0
2017-Dec-10 13:30N 39°52' W 075°13'0 0.1
2017-Dec-10 13:01N 39°52' W 075°13'0 0.0
2017-Dec-10 12:30N 39°52' W 075°13'0 0.0
2017-Dec-10 12:01N 39°52' W 075°13'0 0.0
2017-Dec-10 11:30N 39°52' W 075°13'0 0.0
2017-Dec-10 11:01N 39°52' W 075°13'0 0.0
2017-Dec-10 10:30N 39°52' W 075°13'0 0.0
2017-Dec-10 10:01N 39°52' W 075°13'0 0.0
2017-Dec-10 09:31N 39°52' W 075°13'0 0.0
2017-Dec-10 09:01N 39°52' W 075°13'0 0.0
2017-Dec-10 08:30N 39°52' W 075°13'0 0.0
2017-Dec-10 08:01N 39°52' W 075°13'0 0.0
2017-Dec-10 07:31N 39°52' W 075°13'0 0.0
2017-Dec-10 07:01N 39°52' W 075°13'0 0.0
2017-Dec-10 06:30N 39°52' W 075°13'0 0.0
2017-Dec-10 06:00N 39°52' W 075°13'0 0.0
2017-Dec-10 05:31N 39°52' W 075°13'0 0.0
2017-Dec-10 05:01N 39°52' W 075°13'0 0.0
2017-Dec-10 04:31N 39°52' W 075°13'0 0.0
2017-Dec-10 04:00N 39°52' W 075°13'0 0.0
2017-Dec-10 03:31N 39°52' W 075°13'0 0.0
2017-Dec-10 03:00N 39°52' W 075°13'0 0.0
2017-Dec-10 02:30N 39°52' W 075°13'0 0.0
2017-Dec-10 02:00N 39°52' W 075°13'0 0.0
2017-Dec-10 01:30N 39°52' W 075°13'0 0.0
2017-Dec-10 01:00N 39°52' W 075°13'0 0.0
2017-Dec-10 00:31N 39°52' W 075°13'0 0.0
2017-Dec-10 00:01N 39°52' W 075°13'0 0.0
2017-Dec-09 23:31N 39°52' W 075°13'3 5.2
2017-Dec-09 23:00N 39°51' W 075°16'4 7.7
2017-Dec-09 22:30N 39°50' W 075°21'1 1.6
2017-Dec-09 22:01N 39°50' W 075°22'0 0.7
2017-Dec-09 21:31N 39°50' W 075°22'2 4.7
2017-Dec-09 21:00N 39°51' W 075°20'3 5.4
2017-Dec-09 20:30N 39°51' W 075°16'2 5.0
2017-Dec-09 20:01N 39°52' W 075°13'0 0.4
2017-Dec-09 19:31N 39°52' W 075°13'0 0.0
2017-Dec-09 19:01N 39°52' W 075°13'0 0.1
2017-Dec-09 18:30N 39°52' W 075°13'0 0.0
2017-Dec-09 18:01N 39°52' W 075°13'0 0.0
2017-Dec-09 17:31N 39°52' W 075°13'0 0.0
2017-Dec-09 17:01N 39°52' W 075°13'0 0.0
2017-Dec-09 16:30N 39°52' W 075°13'0 0.0
2017-Dec-09 16:00N 39°52' W 075°13'0 0.0
2017-Dec-09 15:31N 39°52' W 075°13'0 0.0
2017-Dec-09 15:00N 39°52' W 075°13'0 0.2
2017-Dec-09 14:30N 39°52' W 075°13'0 0.0
2017-Dec-09 14:01N 39°52' W 075°13'0 0.0
2017-Dec-09 13:30N 39°52' W 075°13'0 0.0
2017-Dec-09 13:00N 39°52' W 075°13'0 0.1
2017-Dec-09 12:31N 39°52' W 075°13'0 0.2
2017-Dec-09 12:00N 39°52' W 075°13'0 0.4
2017-Dec-09 11:30N 39°52' W 075°13'0 0.0
2017-Dec-09 11:00N 39°52' W 075°13'0 0.0
2017-Dec-09 10:31N 39°52' W 075°13'0 0.0
2017-Dec-09 10:00N 39°52' W 075°13'0 0.0
2017-Dec-09 09:30N 39°52' W 075°13'0 0.0
2017-Dec-09 09:01N 39°52' W 075°13'0 0.0
2017-Dec-09 08:31N 39°52' W 075°13'0 0.0
2017-Dec-09 08:00N 39°52' W 075°13'0 0.0
2017-Dec-09 07:31N 39°52' W 075°13'0 0.0
2017-Dec-09 07:00N 39°52' W 075°13'0 0.0
2017-Dec-09 06:31N 39°52' W 075°13'0 0.0
2017-Dec-09 06:00N 39°52' W 075°13'0 0.0
2017-Dec-09 05:30N 39°52' W 075°13'0 0.0
2017-Dec-09 05:01N 39°52' W 075°13'0 0.0
2017-Dec-09 04:30N 39°52' W 075°13'0 0.0
2017-Dec-09 04:00N 39°52' W 075°13'0 0.0
2017-Dec-09 03:30N 39°52' W 075°13'0 0.0
2017-Dec-09 03:01N 39°52' W 075°13'0 0.0
2017-Dec-09 02:31N 39°52' W 075°13'0 0.0
2017-Dec-09 02:01N 39°52' W 075°13'0 0.0
2017-Dec-09 01:31N 39°52' W 075°13'0 0.0
2017-Dec-09 01:01N 39°52' W 075°13'0 0.0
2017-Dec-09 00:30N 39°52' W 075°13'0 0.0
2017-Dec-09 00:00N 39°52' W 075°13'0 0.0
2017-Dec-08 23:30N 39°52' W 075°13'0 0.0
2017-Dec-08 23:00N 39°52' W 075°13'0 0.0
2017-Dec-08 22:31N 39°52' W 075°13'0 0.0
2017-Dec-08 22:00N 39°52' W 075°13'0 0.0
2017-Dec-08 21:30N 39°52' W 075°13'0 0.1
2017-Dec-08 21:01N 39°52' W 075°13'0 0.4
2017-Dec-08 20:30N 39°52' W 075°13'0 0.1
2017-Dec-08 20:01N 39°52' W 075°13'0 0.0
2017-Dec-08 19:30N 39°52' W 075°13'0 0.0
2017-Dec-08 19:01N 39°52' W 075°13'0 0.0
2017-Dec-08 18:30N 39°52' W 075°13'0 0.0
2017-Dec-08 18:00N 39°52' W 075°13'0 0.0
2017-Dec-08 17:30N 39°52' W 075°13'0 0.0
2017-Dec-08 17:00N 39°52' W 075°13'0 0.0
2017-Dec-08 16:31N 39°52' W 075°13'0 0.0
2017-Dec-08 16:00N 39°52' W 075°13'0 0.0
2017-Dec-08 15:31N 39°52' W 075°13'0 0.1
2017-Dec-08 15:01N 39°52' W 075°13'0 0.0
2017-Dec-08 14:31N 39°52' W 075°13'0 0.4
2017-Dec-08 14:01N 39°52' W 075°13'0 0.4
2017-Dec-08 13:31N 39°52' W 075°13'0 0.0
2017-Dec-08 13:01N 39°52' W 075°13'0 0.0
2017-Dec-08 12:30N 39°52' W 075°13'0 0.0
2017-Dec-08 12:01N 39°52' W 075°13'0 0.5
2017-Dec-08 11:30N 39°52' W 075°13'0 0.0
2017-Dec-08 11:01N 39°52' W 075°13'0 0.0
2017-Dec-08 10:31N 39°52' W 075°13'0 0.0
2017-Dec-08 10:01N 39°52' W 075°13'0 0.0
2017-Dec-08 09:31N 39°52' W 075°13'0 0.0
2017-Dec-08 09:00N 39°52' W 075°13'0 0.0
2017-Dec-08 08:30N 39°52' W 075°13'0 0.0
2017-Dec-08 08:01N 39°52' W 075°13'0 0.0
2017-Dec-08 07:30N 39°52' W 075°13'0 0.0
2017-Dec-08 07:00N 39°52' W 075°13'0 0.0
2017-Dec-08 06:30N 39°52' W 075°13'0 0.0
2017-Dec-08 06:01N 39°52' W 075°13'0 0.0
2017-Dec-08 05:31N 39°52' W 075°13'0 0.0
2017-Dec-08 05:00N 39°52' W 075°13'0 0.0
2017-Dec-08 04:30N 39°52' W 075°13'0 0.1
2017-Dec-08 04:01N 39°52' W 075°13'1 1.4
2017-Dec-08 03:30N 39°52' W 075°14'3 5.9
2017-Dec-08 03:00N 39°51' W 075°17'3 5.6
2017-Dec-08 02:30N 39°51' W 075°21'1 2.4
2017-Dec-08 02:00N 39°49' W 075°22'0 0.4
2017-Dec-08 01:30N 39°50' W 075°21'0 0.9
2017-Dec-08 01:01N 39°50' W 075°22'3 5.4
2017-Dec-08 00:31N 39°51' W 075°19'4 7.5
2017-Dec-08 00:01N 39°51' W 075°14'1 2.2
2017-Dec-07 23:31N 39°52' W 075°13'2 4.1
2017-Dec-07 23:01N 39°54' W 075°12'0 0.0
2017-Dec-07 22:31N 39°54' W 075°12'2 3.3
2017-Dec-07 22:01N 39°52' W 075°13'0 0.8
2017-Dec-07 21:30N 39°52' W 075°13'0 0.0
2017-Dec-07 21:01N 39°52' W 075°13'0 0.0
2017-Dec-07 20:31N 39°52' W 075°13'0 0.0
2017-Dec-07 20:00N 39°52' W 075°13'  

Dump ship's entire track history